Time;durP1;ratioP1;P1;durP2;ratioP2;P2;SDS_P1;SDS_P2;PMS_P1;PMS_P2;Temp;Humidity;BMP_temperature;BMP_pressure;BME280_temperature;BME280_humidity;BME280_pressure;Samples;Min_cycle;Max_cycle;Signal;HPM_P1;HPM_P2
2023/12/27 00:00:51;;;;;;;1.35;1.35;;;;;;;13.05;72.13;100253.50;5090093;28;20202;-73
2023/12/27 00:03:18;;;;;;;1.33;1.23;;;;;;;13.06;72.24;100254.34;5090083;28;20259;-73
2023/12/27 00:05:45;;;;;;;1.20;1.20;;;;;;;12.99;72.32;100260.38;5090698;28;20263;-73
2023/12/27 00:08:12;;;;;;;0.98;0.98;;;;;;;12.98;72.90;100259.53;5090025;28;20198;-73
2023/12/27 00:10:40;;;;;;;1.15;1.15;;;;;;;13.09;72.26;100250.06;5037881;28;20210;-73
2023/12/27 00:13:07;;;;;;;0.73;0.73;;;;;;;12.87;71.87;100233.41;5089660;28;20662;-72
2023/12/27 00:15:34;;;;;;;2.58;1.20;;;;;;;12.91;71.62;100231.72;5088774;28;20221;-72
2023/12/27 00:18:00;;;;;;;2.50;1.10;;;;;;;12.56;71.24;100173.28;5089876;28;20224;-73
2023/12/27 00:20:27;;;;;;;1.73;1.70;;;;;;;13.13;71.01;100264.84;5089584;28;20193;-73
2023/12/27 00:22:54;;;;;;;0.98;0.98;;;;;;;13.08;71.43;100263.94;5092962;28;20194;-72
2023/12/27 00:25:21;;;;;;;0.90;0.90;;;;;;;13.18;71.33;100272.72;5090319;28;20952;-73
2023/12/27 00:27:49;;;;;;;1.20;1.10;;;;;;;13.14;71.51;100269.22;5087602;28;20614;-72
2023/12/27 00:30:16;;;;;;;0.90;0.90;;;;;;;12.88;71.87;100213.44;5092232;28;20205;-71
2023/12/27 00:32:43;;;;;;;1.80;1.67;;;;;;;13.18;72.44;100273.59;5040759;28;20756;-72
2023/12/27 00:35:09;;;;;;;1.00;1.00;;;;;;;13.12;72.33;100255.31;5091674;28;20256;-72
2023/12/27 00:37:36;;;;;;;0.90;0.90;;;;;;;13.22;71.83;100270.16;5093265;28;20217;-72
2023/12/27 00:40:03;;;;;;;0.93;0.93;;;;;;;13.13;72.24;100283.06;5086205;28;20589;-72
2023/12/27 00:42:30;;;;;;;1.77;1.60;;;;;;;13.12;72.81;100291.78;5089913;28;20206;-72
2023/12/27 00:44:58;;;;;;;1.50;1.40;;;;;;;13.18;72.89;100290.94;5042971;28;20206;-72
2023/12/27 00:47:25;;;;;;;0.70;0.70;;;;;;;13.11;72.20;100276.13;5093099;28;20289;-72
2023/12/27 00:49:51;;;;;;;1.45;0.95;;;;;;;13.15;72.71;100291.78;5093226;28;20682;-73
2023/12/27 00:52:18;;;;;;;1.45;1.35;;;;;;;13.19;71.96;100301.38;5092586;28;20704;-72
2023/12/27 00:54:45;;;;;;;0.98;0.98;;;;;;;13.07;72.49;100297.75;5092325;28;20564;-73
2023/12/27 00:57:12;;;;;;;0.98;0.98;;;;;;;13.12;72.81;100302.19;5092968;28;20618;-74
2023/12/27 00:59:38;;;;;;;3.90;1.45;;;;;;;13.20;72.19;100300.50;5092688;28;20194;-73
2023/12/27 01:02:08;;;;;;;2.72;1.55;;;;;;;13.23;72.30;100300.53;5099796;28;20781;-74
2023/12/27 01:04:35;;;;;;;1.17;1.17;;;;;;;13.14;72.14;100299.56;5090604;28;20662;-74
2023/12/27 01:07:01;;;;;;;0.90;0.90;;;;;;;13.18;72.76;100304.84;5092028;28;20870;-74
2023/12/27 01:09:28;;;;;;;1.00;1.00;;;;;;;13.23;73.24;100323.97;5093648;28;20665;-72
2023/12/27 01:11:55;;;;;;;0.85;0.85;;;;;;;13.24;72.73;100324.81;5099525;28;20216;-72
2023/12/27 01:14:22;;;;;;;0.85;0.85;;;;;;;13.28;73.22;100327.47;5093715;28;20217;-72
2023/12/27 01:16:48;;;;;;;0.90;0.90;;;;;;;13.31;73.05;100335.31;5092441;28;20610;-72
2023/12/27 01:19:17;;;;;;;0.90;0.90;;;;;;;13.32;73.29;100346.59;5093030;28;20739;-73
2023/12/27 01:21:43;;;;;;;0.68;0.68;;;;;;;13.35;72.80;100344.88;5059999;28;20198;-72
2023/12/27 01:24:10;;;;;;;0.80;0.80;;;;;;;13.26;72.90;100316.19;5090589;28;20597;-72
2023/12/27 01:26:37;;;;;;;0.80;0.80;;;;;;;13.06;73.13;100307.28;5057552;28;20835;-72
2023/12/27 01:29:04;;;;;;;1.00;1.00;;;;;;;13.12;73.11;100335.16;5039421;28;20563;-72
2023/12/27 01:31:30;;;;;;;0.90;0.90;;;;;;;13.10;72.77;100329.03;5094788;28;20869;-72
2023/12/27 01:33:57;;;;;;;0.75;0.75;;;;;;;13.21;72.89;100362.13;5092387;28;20237;-72
2023/12/27 01:36:25;;;;;;;1.38;1.30;;;;;;;13.12;73.03;100327.34;5092760;28;20229;-72
2023/12/27 01:38:52;;;;;;;1.25;1.25;;;;;;;13.21;73.34;100348.25;5092458;28;20205;-72
2023/12/27 01:41:19;;;;;;;3.72;2.05;;;;;;;13.19;74.03;100350.84;5094328;28;20205;-72
2023/12/27 01:43:46;;;;;;;1.00;0.80;;;;;;;13.19;74.17;100355.19;5091733;28;20202;-73
2023/12/27 01:46:13;;;;;;;1.85;1.77;;;;;;;13.19;74.92;100366.47;5092541;28;20210;-73
2023/12/27 01:48:40;;;;;;;0.70;0.70;;;;;;;13.06;75.25;100330.72;5092557;28;20209;-72
2023/12/27 01:51:07;;;;;;;1.45;1.45;;;;;;;13.22;75.69;100360.41;5092476;28;20202;-73
2023/12/27 01:53:35;;;;;;;2.40;1.67;;;;;;;13.22;76.43;100369.09;5091171;28;20220;-72
2023/12/27 01:56:03;;;;;;;1.70;1.70;;;;;;;13.23;76.39;100337.00;5089528;28;20225;-73
2023/12/27 01:58:30;;;;;;;1.40;0.75;;;;;;;13.18;76.71;100343.88;5047371;28;20202;-74
2023/12/27 02:00:59;;;;;;;0.93;0.93;;;;;;;13.16;77.29;100335.16;5097886;28;20590;-73
2023/12/27 02:03:26;;;;;;;0.90;0.90;;;;;;;13.28;78.02;100350.91;5090953;28;20217;-74
2023/12/27 02:05:56;;;;;;;1.05;1.05;;;;;;;13.32;78.08;100352.69;5092457;28;20747;-73
2023/12/27 02:08:24;;;;;;;0.85;0.85;;;;;;;13.12;79.33;100333.44;5091500;28;20732;-72
2023/12/27 02:10:52;;;;;;;5.38;1.50;;;;;;;13.18;79.41;100346.50;5092212;28;20229;-73
2023/12/27 02:13:19;;;;;;;0.85;0.85;;;;;;;13.17;80.09;100357.75;5091728;28;20194;-73
2023/12/27 02:15:47;;;;;;;0.80;0.80;;;;;;;12.82;80.74;100312.28;5091305;28;20353;-73
2023/12/27 02:18:15;;;;;;;0.70;0.70;;;;;;;13.08;81.13;100341.16;5090219;28;20214;-74
2023/12/27 02:20:42;;;;;;;0.80;0.80;;;;;;;13.09;81.87;100346.38;5090976;28;20202;-73
2023/12/27 02:23:13;;;;;;;0.70;0.70;;;;;;;13.13;82.50;100357.69;5091591;28;20202;-73
2023/12/27 02:25:43;;;;;;;0.88;0.88;;;;;;;12.97;83.11;100340.19;5097548;28;20298;-73
2023/12/27 02:28:10;;;;;;;1.40;1.40;;;;;;;12.77;83.47;100294.00;5090989;28;20221;-74
2023/12/27 02:30:38;;;;;;;31.20;1.38;;;;;;;13.05;83.84;100334.19;5094170;28;20579;-73
2023/12/27 02:33:05;;;;;;;0.80;0.80;;;;;;;13.10;84.56;100348.13;5091773;28;20194;-74
2023/12/27 02:35:32;;;;;;;1.10;1.10;;;;;;;13.09;84.55;100345.50;5095732;28;20241;-74
2023/12/27 02:37:59;;;;;;;0.90;0.90;;;;;;;13.08;85.92;100344.63;5091483;28;20198;-74
2023/12/27 02:40:26;;;;;;;1.30;1.23;;;;;;;13.04;85.96;100336.78;5090133;28;20203;-74
2023/12/27 02:42:54;;;;;;;1.48;1.48;;;;;;;12.89;86.42;100324.50;5040149;28;20199;-74
2023/12/27 02:45:21;;;;;;;0.82;0.82;;;;;;;13.05;86.57;100352.41;5089807;28;20562;-74
2023/12/27 02:47:47;;;;;;;1.00;1.00;;;;;;;13.06;86.99;100346.34;5091321;28;20726;-74
2023/12/27 02:50:14;;;;;;;0.98;0.98;;;;;;;13.01;87.58;100332.41;5091125;28;20206;-74
2023/12/27 02:52:41;;;;;;;0.60;0.60;;;;;;;13.00;88.00;100361.03;5089958;28;20354;-74
2023/12/27 02:55:08;;;;;;;0.95;0.95;;;;;;;12.95;88.77;100355.78;5091033;28;20198;-75
2023/12/27 02:57:35;;;;;;;1.00;1.00;;;;;;;12.94;88.71;100356.66;5094893;28;20225;-74
2023/12/27 03:00:04;;;;;;;1.00;1.00;;;;;;;12.91;89.11;100360.06;5089211;28;20233;-74
2023/12/27 03:02:30;;;;;;;2.80;2.30;;;;;;;12.91;88.79;100360.06;5070903;28;20225;-74
2023/12/27 03:04:57;;;;;;;0.98;0.98;;;;;;;12.75;89.00;100346.91;5089264;28;20592;-73
2023/12/27 03:07:24;;;;;;;2.28;1.17;;;;;;;12.77;89.76;100350.41;5090830;28;20559;-73
2023/12/27 03:09:51;;;;;;;1.20;1.05;;;;;;;12.75;90.54;100352.97;5091092;28;20583;-74
2023/12/27 03:12:17;;;;;;;0.70;0.70;;;;;;;12.69;90.85;100357.25;5054055;28;20612;-74
2023/12/27 03:14:44;;;;;;;0.90;0.90;;;;;;;12.69;91.00;100372.88;5095395;28;20201;-74
2023/12/27 03:17:12;;;;;;;0.80;0.80;;;;;;;12.70;91.63;100374.63;5054520;28;20218;-74
2023/12/27 03:19:39;;;;;;;1.42;1.40;;;;;;;12.54;92.14;100359.69;5090123;28;20285;-73
2023/12/27 03:22:06;;;;;;;0.80;0.80;;;;;;;12.67;92.48;100387.56;5087701;28;20190;-74
2023/12/27 03:24:32;;;;;;;1.23;1.23;;;;;;;12.52;92.55;100364.00;5091842;28;20205;-74
2023/12/27 03:26:59;;;;;;;0.80;0.80;;;;;;;12.60;92.86;100375.34;5089705;28;20217;-74
2023/12/27 03:29:26;;;;;;;1.00;1.00;;;;;;;12.53;93.91;100378.72;5091863;28;20257;-73
2023/12/27 03:31:54;;;;;;;0.90;0.90;;;;;;;12.57;94.23;100384.00;5097130;28;20198;-74
2023/12/27 03:34:22;;;;;;;0.80;0.80;;;;;;;12.43;94.86;100367.34;5101512;28;20253;-73
2023/12/27 03:36:49;;;;;;;1.55;1.45;;;;;;;12.37;95.08;100362.09;5098362;28;20222;-73
2023/12/27 03:39:15;;;;;;;1.00;1.00;;;;;;;12.49;95.17;100383.00;5095439;28;20214;-74
2023/12/27 03:41:42;;;;;;;1.83;1.73;;;;;;;12.42;96.03;100384.69;5096211;28;20198;-73
2023/12/27 03:44:09;;;;;;;3.20;1.38;;;;;;;12.41;96.13;100382.91;5090783;28;20202;-73
2023/12/27 03:46:36;;;;;;;1.00;1.00;;;;;;;12.34;96.67;100394.09;5090054;28;20255;-73
2023/12/27 03:49:03;;;;;;;0.80;0.80;;;;;;;12.20;97.25;100377.44;5090296;28;20835;-74
2023/12/27 03:51:32;;;;;;;0.70;0.70;;;;;;;12.42;97.31;100392.47;5092553;28;20198;-73
2023/12/27 03:53:59;;;;;;;1.00;1.00;;;;;;;12.30;97.38;100388.88;5055298;28;20198;-73
2023/12/27 03:56:26;;;;;;;1.13;1.13;;;;;;;12.23;98.02;100395.72;5090792;28;20724;-73
2023/12/27 03:58:52;;;;;;;1.00;1.00;;;;;;;12.17;99.01;100397.34;5090435;28;20254;-73
2023/12/27 04:01:21;;;;;;;0.90;0.90;;;;;;;12.12;99.80;100399.91;5089696;28;20550;-73
2023/12/27 04:03:48;;;;;;;1.17;1.17;;;;;;;12.08;100.00;100389.44;5083233;28;20289;-73
2023/12/27 04:06:18;;;;;;;1.52;1.52;;;;;;;12.16;99.97;100391.28;5086979;28;20246;-73
2023/12/27 04:08:47;;;;;;;0.70;0.70;;;;;;;12.15;100.00;100397.34;5086046;28;20207;-73
2023/12/27 04:11:14;;;;;;;1.13;1.13;;;;;;;11.89;100.00;100357.09;5089451;28;20682;-73
2023/12/27 04:13:41;;;;;;;0.88;0.88;;;;;;;12.00;100.00;100389.31;5089608;28;20205;-73
2023/12/27 04:16:08;;;;;;;0.98;0.98;;;;;;;12.07;100.00;100405.88;5089869;28;20254;-73
2023/12/27 04:18:35;;;;;;;1.83;1.70;;;;;;;12.08;100.00;100421.50;5090181;28;20225;-73
2023/12/27 04:21:01;;;;;;;3.83;3.08;;;;;;;11.54;100.00;100302.03;5037821;28;20194;-73
2023/12/27 04:23:28;;;;;;;1.40;1.33;;;;;;;12.11;100.00;100407.66;5088958;28;20686;-73
2023/12/27 04:25:56;;;;;;;2.47;1.40;;;;;;;12.13;100.00;100405.97;5089996;28;20206;-73
2023/12/27 04:28:23;;;;;;;3.35;3.15;;;;;;;11.92;100.00;100406.50;5088064;28;20213;-73
2023/12/27 04:30:50;;;;;;;5.57;1.83;;;;;;;12.09;100.00;100409.38;5090058;28;20349;-72
2023/12/27 04:33:17;;;;;;;1.77;1.67;;;;;;;12.01;100.00;100427.47;5089749;28;20205;-73
2023/12/27 04:35:44;;;;;;;1.23;1.23;;;;;;;11.83;100.00;100390.81;5090064;28;20230;-72
2023/12/27 04:38:13;;;;;;;1.20;1.20;;;;;;;11.95;100.00;100422.13;5089514;28;20226;-73
2023/12/27 04:40:43;;;;;;;0.80;0.80;;;;;;;11.98;100.00;100431.72;5044774;28;20202;-73
2023/12/27 04:43:11;;;;;;;13.45;2.58;;;;;;;11.72;100.00;100387.16;5091769;28;20198;-74
2023/12/27 04:45:38;;;;;;;1.08;1.08;;;;;;;11.82;100.00;100420.22;5088412;28;20201;-74
2023/12/27 04:48:06;;;;;;;2.10;1.50;;;;;;;11.71;100.00;100395.81;5086510;28;20202;-73
2023/12/27 04:50:33;;;;;;;1.58;1.48;;;;;;;11.97;100.00;100435.16;5082213;28;20282;-73
2023/12/27 04:53:00;;;;;;;1.10;1.10;;;;;;;11.92;100.00;100437.69;5089128;28;20210;-73
2023/12/27 04:55:27;;;;;;;0.80;0.80;;;;;;;11.90;100.00;100439.41;5089592;28;20194;-73
2023/12/27 04:57:53;;;;;;;0.90;0.90;;;;;;;11.84;100.00;100440.16;5053524;28;20236;-72
2023/12/27 05:00:22;;;;;;;0.90;0.90;;;;;;;11.81;100.00;100449.63;5089302;28;20194;-73
2023/12/27 05:02:49;;;;;;;3.90;1.10;;;;;;;11.81;100.00;100449.63;5089141;28;20194;-73
2023/12/27 05:05:16;;;;;;;0.70;0.70;;;;;;;11.75;100.00;100463.41;5089040;28;20320;-73
2023/12/27 05:07:43;;;;;;;0.80;0.80;;;;;;;11.73;100.00;100466.84;5090081;28;20198;-73
2023/12/27 05:10:10;;;;;;;1.20;1.15;;;;;;;11.79;100.00;100470.41;5093465;28;20189;-72
2023/12/27 05:12:36;;;;;;;0.90;0.90;;;;;;;11.65;100.00;100463.22;5091745;28;20206;-73
2023/12/27 05:15:04;;;;;;;1.00;1.00;;;;;;;11.72;100.00;100475.47;5089504;28;20210;-73
2023/12/27 05:17:32;;;;;;;1.90;1.60;;;;;;;11.61;100.00;100466.59;5085066;28;20702;-73
2023/12/27 05:19:58;;;;;;;1.17;1.10;;;;;;;11.16;100.00;100414.78;5096790;28;20202;-72
2023/12/27 05:22:27;;;;;;;0.90;0.90;;;;;;;11.63;100.00;100480.50;5092663;28;20197;-73
2023/12/27 05:24:54;;;;;;;1.00;1.00;;;;;;;11.48;100.00;100446.47;5092777;28;20647;-73
2023/12/27 05:27:21;;;;;;;2.45;2.35;;;;;;;11.59;100.00;100495.16;5056780;28;20210;-73
2023/12/27 05:29:48;;;;;;;0.90;0.90;;;;;;;11.63;100.00;100507.31;5096411;28;20198;-72
2023/12/27 05:32:15;;;;;;;0.80;0.80;;;;;;;11.55;100.00;100503.75;5093203;28;20202;-73
2023/12/27 05:34:43;;;;;;;0.75;0.75;;;;;;;11.60;100.00;100501.19;5092396;28;20298;-73
2023/12/27 05:37:10;;;;;;;0.90;0.90;;;;;;;11.37;100.00;100470.53;5097966;28;20228;-72
2023/12/27 05:39:37;;;;;;;0.90;0.90;;;;;;;11.57;100.00;100516.72;5091810;28;20601;-72
2023/12/27 05:42:03;;;;;;;1.23;1.23;;;;;;;11.45;100.00;100523.44;5097271;28;20213;-73
2023/12/27 05:44:30;;;;;;;3.30;1.30;;;;;;;11.48;100.00;100527.84;5091984;28;20210;-72
2023/12/27 05:46:58;;;;;;;0.80;0.80;;;;;;;11.04;100.00;100454.34;5055885;28;20210;-72
2023/12/27 05:49:25;;;;;;;1.15;1.15;;;;;;;11.12;100.00;100467.47;5092496;28;20654;-74
2023/12/27 05:51:53;;;;;;;1.40;1.40;;;;;;;11.45;100.00;100526.03;5097244;28;20663;-75
2023/12/27 05:54:20;;;;;;;1.23;1.17;;;;;;;11.27;100.00;100502.34;5058866;28;20198;-77
2023/12/27 05:56:47;;;;;;;10.32;3.08;;;;;;;11.35;100.00;100520.66;5093463;28;20230;-76
2023/12/27 05:59:13;;;;;;;0.90;0.90;;;;;;;11.44;100.00;100537.31;5092404;28;20198;-78
2023/12/27 06:01:46;;;;;;;0.90;0.90;;;;;;;11.46;100.00;100537.31;5097318;28;20617;-82
2023/12/27 06:04:14;;;;;;;1.20;1.20;;;;;;;11.45;100.00;100544.22;5092278;28;20646;-73
2023/12/27 06:06:41;;;;;;;0.98;0.98;;;;;;;11.44;100.00;100560.69;5092515;28;20202;-74
2023/12/27 06:09:10;;;;;;;1.63;1.63;;;;;;;11.37;100.00;100530.25;5056169;28;20198;-74
2023/12/27 06:11:37;;;;;;;1.13;1.13;;;;;;;11.49;100.00;100565.06;5099993;28;20194;-73
2023/12/27 06:14:04;;;;;;;1.05;1.05;;;;;;;11.52;100.00;100559.94;5091861;28;20614;-74
2023/12/27 06:16:31;;;;;;;1.60;1.60;;;;;;;11.51;100.00;100578.97;5093928;28;20669;-75
2023/12/27 06:19:01;;;;;;;1.45;1.35;;;;;;;11.37;100.00;100558.81;5095112;28;20682;-72
2023/12/27 06:21:28;;;;;;;1.05;1.05;;;;;;;11.45;100.00;100567.59;5088666;28;20202;-73
2023/12/27 06:23:55;;;;;;;1.40;1.40;;;;;;;11.50;100.00;100582.38;5092253;28;20194;-75
2023/12/27 06:26:23;;;;;;;1.15;0.95;;;;;;;11.55;100.00;100598.94;5090994;28;20206;-74
2023/12/27 06:28:50;;;;;;;1.40;1.33;;;;;;;11.58;100.00;100586.03;5086008;28;20217;-77
2023/12/27 06:31:17;;;;;;;1.55;1.55;;;;;;;11.57;100.00;100590.34;5089065;28;20210;-75
2023/12/27 06:33:44;;;;;;;0.70;0.70;;;;;;;11.63;100.00;100602.59;5091639;28;20248;-75
2023/12/27 06:36:10;;;;;;;1.00;1.00;;;;;;;11.56;100.00;100603.31;5087773;28;20213;-72
2023/12/27 06:38:37;;;;;;;0.90;0.90;;;;;;;11.51;100.00;100584.16;5095329;28;20598;-72
2023/12/27 06:41:04;;;;;;;2.13;1.90;;;;;;;11.48;100.00;100584.09;5091273;28;20673;-76
2023/12/27 06:43:32;;;;;;;1.00;1.00;;;;;;;11.61;100.00;100601.66;5081245;28;20213;-76
2023/12/27 06:45:59;;;;;;;3.45;1.17;;;;;;;11.60;100.00;100611.16;5088102;28;20202;-76
2023/12/27 06:48:26;;;;;;;0.93;0.93;;;;;;;11.69;100.00;100615.66;5091324;28;20673;-74
2023/12/27 06:50:53;;;;;;;1.00;1.00;;;;;;;11.60;100.00;100613.75;5091119;28;20676;-79
2023/12/27 06:53:19;;;;;;;1.27;1.27;;;;;;;11.57;100.00;100620.63;5091204;28;20210;-77
2023/12/27 06:55:46;;;;;;;1.25;1.25;;;;;;;11.69;100.00;100634.72;5085050;28;20684;-77
2023/12/27 06:58:13;;;;;;;1.30;1.30;;;;;;;11.62;100.00;100626.78;5082493;28;20226;-76
2023/12/27 07:00:41;;;;;;;1.30;1.30;;;;;;;11.56;100.00;100624.09;5081038;28;20194;-75
2023/12/27 07:03:08;;;;;;;0.70;0.70;;;;;;;11.73;100.00;100659.09;5082898;28;20199;-77
2023/12/27 07:05:36;;;;;;;0.88;0.88;;;;;;;11.78;100.00;100660.03;5090898;28;20286;-75
2023/12/27 07:08:03;;;;;;;0.80;0.80;;;;;;;11.61;100.00;100628.50;5086550;28;20290;-76
2023/12/27 07:10:30;;;;;;;1.30;1.30;;;;;;;11.80;100.00;100673.94;5089193;28;20202;-75
2023/12/27 07:12:57;;;;;;;2.28;1.38;;;;;;;11.82;100.00;100672.22;5088895;28;20221;-77
2023/12/27 07:15:24;;;;;;;0.90;0.90;;;;;;;11.70;100.00;100633.03;5089644;28;20272;-76
2023/12/27 07:17:52;;;;;;;1.20;1.20;;;;;;;11.90;100.00;100681.06;5076958;28;20585;-76
2023/12/27 07:20:19;;;;;;;2.15;2.03;;;;;;;11.90;100.00;100679.34;5090632;28;20217;-76
2023/12/27 07:22:46;;;;;;;1.45;1.45;;;;;;;11.93;100.00;100694.09;5086121;28;20214;-78
2023/12/27 07:25:13;;;;;;;1.73;1.20;;;;;;;12.05;100.00;100694.34;5083331;28;20213;-75
2023/12/27 07:27:39;;;;;;;1.08;1.08;;;;;;;12.00;100.00;100685.59;5052368;28;20217;-75
2023/12/27 07:30:07;;;;;;;0.70;0.70;;;;;;;12.06;100.00;100710.81;5072054;28;20204;-75
2023/12/27 07:32:34;;;;;;;1.42;1.42;;;;;;;12.10;100.00;100713.50;5073429;28;20198;-71
2023/12/27 07:35:04;;;;;;;1.58;1.58;;;;;;;12.25;100.00;100708.59;5080305;28;20222;-75
2023/12/27 07:37:31;;;;;;;0.90;0.90;;;;;;;12.11;100.00;100691.84;5088000;28;20218;-74
2023/12/27 07:39:58;;;;;;;4.47;1.92;;;;;;;12.24;100.00;100712.03;5091737;28;20229;-73
2023/12/27 07:42:26;;;;;;;1.58;1.58;;;;;;;12.25;100.00;100724.19;5088491;28;20198;-70
2023/12/27 07:44:52;;;;;;;0.90;0.90;;;;;;;12.31;100.00;100729.50;5087728;28;20206;-74
2023/12/27 07:47:19;;;;;;;0.90;0.90;;;;;;;12.36;99.61;100727.88;5086889;28;20194;-72
2023/12/27 07:49:46;;;;;;;1.27;1.02;;;;;;;12.39;98.95;100732.22;5085554;28;20198;-74
2023/12/27 07:52:14;;;;;;;0.90;0.90;;;;;;;12.45;98.58;100718.47;5083902;28;20201;-71
2023/12/27 07:54:41;;;;;;;1.33;1.33;;;;;;;12.51;97.35;100726.38;5049372;28;20206;-75
2023/12/27 07:57:08;;;;;;;1.60;1.50;;;;;;;12.57;96.61;100723.88;5087800;28;20199;-75
2023/12/27 07:59:34;;;;;;;0.90;0.90;;;;;;;12.66;95.12;100732.72;5085640;28;20202;-74
2023/12/27 08:02:01;;;;;;;1.45;1.35;;;;;;;12.68;93.85;100741.44;5081139;28;20228;-75
2023/12/27 08:04:28;;;;;;;1.00;0.95;;;;;;;12.67;92.97;100723.19;5086503;28;20202;-76
2023/12/27 08:06:55;;;;;;;0.93;0.93;;;;;;;12.83;92.24;100753.81;5062510;28;20229;-77
2023/12/27 08:09:26;;;;;;;0.85;0.85;;;;;;;12.71;92.35;100727.59;5087212;28;20206;-75
2023/12/27 08:11:53;;;;;;;0.90;0.90;;;;;;;12.99;91.41;100768.81;5084107;28;20194;-71
2023/12/27 08:14:18;;;;;;;1.30;1.30;;;;;;;12.74;91.86;100730.22;5084034;28;20663;-71
2023/12/27 08:16:45;;;;;;;1.70;1.67;;;;;;;12.98;91.98;100782.72;5080859;28;20206;-70
2023/12/27 08:19:12;;;;;;;10.38;1.05;;;;;;;13.00;93.02;100775.78;5057206;28;20241;-70
2023/12/27 08:21:39;;;;;;;1.20;1.20;;;;;;;13.07;89.95;100756.81;5044391;28;20202;-70
2023/12/27 08:24:06;;;;;;;1.10;1.10;;;;;;;13.19;89.52;100779.59;5076961;28;20214;-72
2023/12/27 08:26:34;;;;;;;1.35;1.35;;;;;;;13.12;89.64;100775.16;5078414;28;20202;-72
2023/12/27 08:29:01;;;;;;;1.35;1.25;;;;;;;13.30;90.50;100794.56;5075898;28;20690;-74
2023/12/27 08:31:28;;;;;;;1.10;1.10;;;;;;;13.29;88.00;100787.59;5078690;28;20678;-74
2023/12/27 08:33:58;;;;;;;1.23;1.23;;;;;;;13.23;87.05;100777.09;5076362;28;20306;-76
2023/12/27 08:36:25;;;;;;;1.13;1.13;;;;;;;13.32;86.21;100784.13;5077682;28;20298;-77
2023/12/27 08:38:52;;;;;;;0.88;0.88;;;;;;;13.17;87.02;100784.78;5056231;28;20240;-74
2023/12/27 08:41:20;;;;;;;1.80;1.70;;;;;;;12.99;86.41;100742.78;5078870;28;20658;-75
2023/12/27 08:43:48;;;;;;;1.95;1.13;;;;;;;13.09;85.76;100739.50;5087669;28;20281;-74
2023/12/27 08:46:16;;;;;;;1.00;1.00;;;;;;;12.86;85.30;100704.41;5084049;28;20709;-76
2023/12/27 08:48:43;;;;;;;1.45;1.08;;;;;;;13.24;84.82;100771.00;5088663;28;20297;-80
2023/12/27 08:51:10;;;;;;;0.80;0.80;;;;;;;13.54;83.43;100809.66;5093120;28;20202;-75
2023/12/27 08:53:37;;;;;;;2.05;1.95;;;;;;;13.02;83.69;100732.41;5094216;28;20213;-73
2023/12/27 08:56:04;;;;;;;2.15;1.77;;;;;;;13.41;82.86;100798.16;5090374;28;20206;-77
2023/12/27 08:58:32;;;;;;;1.48;1.48;;;;;;;13.63;82.56;100819.31;5094531;28;20221;-73
2023/12/27 09:01:01;;;;;;;1.98;1.52;;;;;;;13.53;80.91;100783.56;5090421;28;20206;-78
2023/12/27 09:03:28;;;;;;;1.00;1.00;;;;;;;13.61;81.18;100813.22;5079588;28;20198;-76
2023/12/27 09:05:55;;;;;;;1.05;1.05;;;;;;;13.45;80.05;100761.78;5042763;28;20213;-76
2023/12/27 09:08:22;;;;;;;1.98;1.88;;;;;;;13.66;80.13;100811.56;5095027;28;20194;-78
2023/12/27 09:10:49;;;;;;;0.90;0.80;;;;;;;13.65;79.19;100781.16;5094287;28;20682;-80
2023/12/27 09:13:16;;;;;;;0.90;0.90;;;;;;;13.76;78.72;100797.81;5094426;28;20274;-84
2023/12/27 09:15:42;;;;;;;1.30;1.30;;;;;;;13.54;78.58;100733.22;5093305;28;20684;-78
2023/12/27 09:18:11;;;;;;;0.80;0.80;;;;;;;13.97;77.82;100794.59;5093915;28;20222;-76
2023/12/27 09:20:37;;;;;;;0.80;0.80;;;;;;;13.90;77.05;100770.19;5088650;28;20213;-78
2023/12/27 09:23:04;;;;;;;0.75;0.75;;;;;;;14.09;76.89;100800.84;5093986;28;20194;-78
2023/12/27 09:25:31;;;;;;;1.38;1.27;;;;;;;14.10;76.09;100792.16;5090680;28;20213;-77
2023/12/27 09:27:58;;;;;;;1.10;1.10;;;;;;;14.05;75.75;100799.06;5092619;28;20198;-77
2023/12/27 09:30:25;;;;;;;0.90;0.90;;;;;;;14.18;74.34;100795.75;5088723;28;20195;-75
2023/12/27 09:32:51;;;;;;;0.95;0.95;;;;;;;14.17;74.05;100801.81;5085189;28;20206;-80
2023/12/27 09:35:19;;;;;;;0.95;0.95;;;;;;;14.09;74.70;100772.16;5080097;28;20231;-79
2023/12/27 09:37:46;;;;;;;0.88;0.88;;;;;;;14.35;74.38;100801.19;5077012;28;20230;-78
2023/12/27 09:40:13;;;;;;;1.30;1.30;;;;;;;14.31;73.55;100815.88;5060375;28;20289;-80
2023/12/27 09:42:41;;;;;;;0.82;0.82;;;;;;;14.38;72.75;100794.25;5083492;28;20696;-81
2023/12/27 09:45:10;;;;;;;1.00;0.90;;;;;;;14.54;72.56;100804.88;5078122;28;20194;-82
2023/12/27 09:47:39;;;;;;;0.73;0.73;;;;;;;14.37;71.47;100779.50;5086483;28;20207;-80
2023/12/27 09:50:07;;;;;;;0.73;0.73;;;;;;;14.54;70.54;100797.03;5091106;28;20205;-77
2023/12/27 09:52:39;;;;;;;0.80;0.80;;;;;;;14.46;69.45;100775.19;5090922;28;20201;-79
2023/12/27 09:55:06;;;;;;;0.80;0.80;;;;;;;14.55;69.53;100794.47;5095546;28;20190;-80
2023/12/27 09:57:34;;;;;;;1.60;1.50;;;;;;;14.75;68.69;100797.25;5093798;28;20197;-83
2023/12/27 10:00:05;;;;;;;0.90;0.90;;;;;;;14.71;68.12;100796.34;5087838;28;20201;-82
2023/12/27 10:02:35;;;;;;;2.20;1.00;;;;;;;14.76;67.25;100788.56;5055070;28;20709;-74
2023/12/27 10:05:10;;;;;;;2.05;1.38;;;;;;;14.83;67.27;100785.16;5087856;28;20214;-75
2023/12/27 10:07:40;;;;;;;1.45;1.45;;;;;;;14.82;66.82;100775.56;5096830;28;20206;-76
2023/12/27 10:10:08;;;;;;;1.15;1.15;;;;;;;14.82;66.77;100767.72;5057570;28;20279;-75
2023/12/27 10:12:36;;;;;;;0.75;0.75;;;;;;;14.80;66.77;100764.25;5092444;28;20210;-79
2023/12/27 10:15:04;;;;;;;2.55;1.25;;;;;;;14.93;65.58;100770.44;5079644;28;20228;-72
2023/12/27 10:17:32;;;;;;;0.85;0.85;;;;;;;14.97;65.49;100783.53;5073043;28;20198;-81
2023/12/27 10:19:59;;;;;;;2.08;1.40;;;;;;;14.87;65.71;100781.72;5083772;28;20306;-77
2023/12/27 10:22:26;;;;;;;1.00;0.98;;;;;;;15.04;64.94;100806.22;5082108;28;20211;-71
2023/12/27 10:24:56;;;;;;;0.95;0.95;;;;;;;15.13;63.91;100808.91;5091469;28;20220;-74
2023/12/27 10:27:23;;;;;;;9.73;2.45;;;;;;;15.11;63.90;100802.81;5092298;28;20699;-72
2023/12/27 10:29:49;;;;;;;5.65;4.57;;;;;;;15.16;64.30;100808.91;5091888;28;20209;-76
2023/12/27 10:32:17;;;;;;;0.93;0.93;;;;;;;15.27;63.64;100798.56;5091749;28;20209;-72
2023/12/27 10:34:44;;;;;;;1.48;1.33;;;;;;;15.25;62.31;100795.94;5091442;28;20237;-71
2023/12/27 10:37:13;;;;;;;6.13;1.65;;;;;;;15.19;62.05;100798.53;5073540;28;20279;-76
2023/12/27 10:39:44;;;;;;;1.52;1.52;;;;;;;15.28;62.75;100800.31;5087679;28;20331;-74
2023/12/27 10:42:16;;;;;;;1.75;1.75;;;;;;;15.34;62.31;100798.59;5083811;28;20230;-77
2023/12/27 10:44:43;;;;;;;1.10;1.10;;;;;;;15.38;61.87;100796.88;5087327;28;20249;-73
2023/12/27 10:47:12;;;;;;;2.92;2.40;;;;;;;15.27;61.04;100781.13;5090087;28;20199;-79
2023/12/27 10:49:42;;;;;;;1.40;1.40;;;;;;;15.47;60.89;100790.88;5092088;28;21985;-76
2023/12/27 10:52:10;;;;;;;2.70;2.50;;;;;;;15.47;61.14;100783.03;5091975;28;20570;-77
2023/12/27 10:54:40;;;;;;;1.85;1.75;;;;;;;15.35;60.59;100765.53;5091082;28;20226;-77
2023/12/27 10:57:14;;;;;;;1.83;1.73;;;;;;;15.46;60.22;100783.88;5092727;28;20592;-81
2023/12/27 10:59:47;;;;;;;1.65;1.65;;;;;;;15.44;60.15;100770.81;5094302;28;20226;-78
2023/12/27 11:02:14;;;;;;;1.40;1.40;;;;;;;14.83;59.63;100697.25;5098878;28;20232;-78
2023/12/27 11:04:43;;;;;;;4.25;3.03;;;;;;;15.18;59.55;100748.88;5098321;28;20213;-76
2023/12/27 11:07:12;;;;;;;0.95;0.95;;;;;;;15.35;59.83;100789.03;5096272;28;20206;-77
2023/12/27 11:09:41;;;;;;;1.20;0.82;;;;;;;15.37;59.51;100769.88;5092904;28;20194;-82
2023/12/27 11:12:09;;;;;;;0.80;0.80;;;;;;;15.29;59.01;100761.13;5094055;28;20205;-77
2023/12/27 11:14:37;;;;;;;0.88;0.88;;;;;;;15.54;58.79;100769.16;5092912;28;20632;-77
2023/12/27 11:17:10;;;;;;;0.80;0.80;;;;;;;15.30;58.82;100730.66;5092641;28;20205;-78
2023/12/27 11:19:37;;;;;;;1.00;1.00;;;;;;;14.95;58.42;100670.34;5088195;28;20588;-77
2023/12/27 11:22:04;;;;;;;1.38;1.08;;;;;;;15.48;58.55;100776.94;5082839;28;20206;-72